This is the latest recevied weather packets stored in our database for station/object SV9TNF-51. If no packets are shown the sender has not sent any weather packets the latest 10 day(s).
| Time | Temp. | Humidity | Pressure | Rain* | Wind** | Luminosity | Snow |
|---|---|---|---|---|---|---|---|
| 1788659879 | 24.44° C | 44% | 1013.6 hPa | 0 mm | 8.05 m/s, 317° | - | - |
| 1788659578 | 24.44° C | 43% | 1013.6 hPa | 0 mm | 4.92 m/s, 342° | - | - |
| 1788659278 | 25° C | 43% | 1013.6 hPa | 0 mm | 4.47 m/s, 310° | - | - |
| 1788658978 | 25° C | 41% | 1013.6 hPa | 0 mm | 6.26 m/s, 338° | - | - |
| 1788658678 | 25° C | 41% | 1013.6 hPa | 0 mm | 5.36 m/s, 334° | - | - |
| 1788658378 | 25.56° C | 40% | 1013.6 hPa | 0 mm | 5.81 m/s, 335° | - | - |
| 1788658078 | 25.56° C | 39% | 1013.6 hPa | 0 mm | 4.02 m/s, 348° | - | - |
| 1788657778 | 25.56° C | 40% | 1013.6 hPa | 0 mm | 5.81 m/s, 329° | - | - |
| 1788657478 | 25° C | 42% | 1013.6 hPa | 0 mm | 4.47 m/s, 332° | - | - |
| 1788657178 | 25.56° C | 40% | 1013.6 hPa | 0 mm | 3.13 m/s, 312° | - | - |
| 1788656878 | 25.56° C | 41% | 1013.9 hPa | 0 mm | 6.26 m/s, 349° | - | - |
| 1788656577 | 25° C | 42% | 1013.9 hPa | 0 mm | 5.81 m/s, 341° | - | - |
| 1788656278 | 25° C | 44% | 1013.9 hPa | 0 mm | 4.02 m/s, 336° | - | - |
| 1788655978 | 25° C | 48% | 1013.9 hPa | 0 mm | 4.47 m/s, 335° | - | - |
| 1788655678 | 24.44° C | 46% | 1013.9 hPa | 0 mm | 5.81 m/s, 352° | - | - |
| 1788655377 | 23.89° C | 44% | 1013.9 hPa | 0 mm | 4.02 m/s, 273° | - | - |
| 1788655077 | 24.44° C | 44% | 1013.9 hPa | 0 mm | 2.68 m/s, 185° | - | - |
| 1788654777 | 23.89° C | 46% | 1013.9 hPa | 0 mm | 4.47 m/s, 338° | - | - |
| 1788654477 | 23.33° C | 47% | 1013.9 hPa | 0 mm | 4.02 m/s, 332° | - | - |
| 1788654177 | 23.33° C | 47% | 1013.9 hPa | 0 mm | 6.26 m/s, 336° | - | - |
| 1788653877 | 23.33° C | 49% | 1013.9 hPa | 0 mm | 4.47 m/s, 313° | - | - |
| 1788653577 | 23.33° C | 48% | 1013.9 hPa | 0 mm | 3.13 m/s, 245° | - | - |
| 1788653277 | 23.33° C | 49% | 1013.9 hPa | 0 mm | 3.13 m/s, 237° | - | - |
| 1788652976 | 24.44° C | 45% | 1013.9 hPa | 0 mm | 5.36 m/s, 250° | - | - |
| 1788652676 | 25.56° C | 39% | 1013.9 hPa | 0 mm | 1.79 m/s, 75° | - | - |
* Rain latest hour (hover to see other rain measurements)
** Current wind speed in m/s (hover to see current wind gust speed)